This is the latest recevied weather packets stored in our database for station/object WB4ZUT. If no packets are shown the sender has not sent any weather packets the latest 1 day(s).
| Time | Temp. | Humidity | Pressure | Rain* | Wind** | Luminosity | Snow |
|---|---|---|---|---|---|---|---|
| 1778027032 | 11.11° C | 99% | 1007.3 hPa | 0 mm | 0 m/s | 0 W/m² | - |
| 1778026727 | 11.11° C | 99% | 1007.1 hPa | 0 mm | 0 m/s | 3 W/m² | - |
| 1778026425 | 11.11° C | 99% | 1007.2 hPa | 0 mm | 0 m/s | 5 W/m² | - |
| 1778026133 | 11.11° C | 99% | 1007.3 hPa | 0 mm | 0 m/s | 10 W/m² | - |
| 1778025820 | 11.11° C | 99% | 1007.3 hPa | 0 mm | 0.45 m/s, 67° | 12 W/m² | - |
| 1778025516 | 11.11° C | 99% | 1007.6 hPa | 0 mm | 0.89 m/s, 15° | 3 W/m² | - |
| 1778025214 | 11.11° C | 99% | 1007.5 hPa | 0 mm | 1.34 m/s, 27° | 2 W/m² | - |
| 1778024910 | 11.11° C | 99% | 1007.3 hPa | 0 mm | 0.89 m/s, 14° | 4 W/m² | - |
| 1778024608 | 11.11° C | 99% | 1007.4 hPa | 0 mm | 0 m/s | 7 W/m² | - |
| 1778024316 | 11.67° C | 99% | 1007.4 hPa | 0 mm | 0 m/s | 4 W/m² | - |
| 1778024003 | 11.67° C | 99% | 1007.4 hPa | 1.27 mm | 0.45 m/s, 46° | 10 W/m² | - |
| 1778023700 | 11.67° C | 99% | 1007.5 hPa | 1.27 mm | 0.45 m/s, 333° | 18 W/m² | - |
| 1778023398 | 11.67° C | 99% | 1007.4 hPa | 0 mm | 0.89 m/s, 45° | 25 W/m² | - |
| 1778023094 | 12.22° C | 99% | 1007.4 hPa | 0 mm | 0.45 m/s, 63° | 19 W/m² | - |
| 1778022792 | 12.22° C | 99% | 1007.4 hPa | 1.78 mm | 0.45 m/s, 64° | 29 W/m² | - |
| 1778022490 | 12.22° C | 99% | 1007.7 hPa | 1.78 mm | 0.89 m/s, 357° | 18 W/m² | - |
| 1778022187 | 12.22° C | 99% | 1007.8 hPa | 0 mm | 0 m/s | 11 W/m² | - |
| 1778021883 | 12.22° C | 99% | 1007.6 hPa | 0 mm | 1.79 m/s, 345° | 14 W/m² | - |
| 1778021581 | 12.78° C | 99% | 1007.6 hPa | 0 mm | 0 m/s | 17 W/m² | - |
| 1778021275 | 12.78° C | 99% | 1007.6 hPa | 0 mm | 0.89 m/s, 135° | 26 W/m² | - |
| 1778020973 | 12.78° C | 99% | 1007.4 hPa | 1.27 mm | 0.89 m/s, 34° | 46 W/m² | - |
| 1778020671 | 12.78° C | 99% | 1007.5 hPa | 1.27 mm | 1.34 m/s, 302° | 70 W/m² | - |
| 1778020367 | 12.78° C | 99% | 1007.2 hPa | 3.05 mm | 1.34 m/s, 48° | 100 W/m² | - |
| 1778020063 | 13.33° C | 99% | 1007.4 hPa | 7.87 mm | 0.45 m/s, 75° | 73 W/m² | - |
| 1778019759 | 15° C | 99% | 1007.4 hPa | 9.65 mm | 1.34 m/s, 27° | 55 W/m² | - |
* Rain latest hour (hover to see other rain measurements)
** Current wind speed in m/s (hover to see current wind gust speed)